Terminal Aerodrome Forecast
Issued by NWS Upton, NY

Home | Current Version | Previous Version | Text Only | Print | Product List | Glossary On
Versions: 1 2 3 4 5 6 7 8 9 10 11 12 13 14 15 16 17 18 19 20 21 22 23 24 25 26 27
000
FTUS41 KOKX 202000 AAA
TAFISP
TAF AMD
KISP 202037Z 2021/2118 25015G26KT P6SM FEW050
     FM210000 28012G19KT P6SM FEW080
     FM211400 30018G27KT P6SM FEW060=

USA.gov is the U.S. government's official web portal to all federal, state and local government web resources and services.